Terminal Aerodrome Forecast
Issued by NWS

Home | Current Version | Previous Version | Text Only | Print | Product List | Glossary On
Versions: 1 2 3 4 5 6 7 8 9 10 11 12 13 14 15 16 17 18 19 20 21 22 23
000
FTUS44 KLIX 292346
TAFMSY
TAF
KMSY 292346Z 3000/3024 16011KT P6SM FEW030 OVC270
     FM300400 16010KT P6SM BKN025
     FM300500 16010KT P6SM BKN015
     FM301000 18010KT P6SM BKN025
     FM301300 19010KT 6SM -SHRA OVC035
      TEMPO 3014/3018 28020G30KT 2SM TSRA BKN025CB=

USA.gov is the U.S. government's official web portal to all federal, state and local government web resources and services.